sensor_id;sensor_type;location;lat;lon;timestamp;P1;durP1;ratioP1;P2;durP2;ratioP2
12770;SDS011;6449;47.666;9.160;2023-04-24T00:00:47;2.50;;;1.10;;
12770;SDS011;6449;47.666;9.160;2023-04-24T00:05:42;2.30;;;1.10;;
12770;SDS011;6449;47.666;9.160;2023-04-24T00:10:37;3.23;;;1.40;;
12770;SDS011;6449;47.666;9.160;2023-04-24T00:15:30;2.30;;;1.47;;
12770;SDS011;6449;47.666;9.160;2023-04-24T00:20:24;1.93;;;1.10;;
12770;SDS011;6449;47.666;9.160;2023-04-24T00:25:17;1.63;;;1.37;;
12770;SDS011;6449;47.666;9.160;2023-04-24T00:30:12;1.30;;;1.10;;
12770;SDS011;6449;47.666;9.160;2023-04-24T00:35:06;0.80;;;0.80;;
12770;SDS011;6449;47.666;9.160;2023-04-24T00:40:00;2.17;;;0.93;;
12770;SDS011;6449;47.666;9.160;2023-04-24T00:44:53;1.40;;;1.10;;
12770;SDS011;6449;47.666;9.160;2023-04-24T00:49:50;2.20;;;1.00;;
12770;SDS011;6449;47.666;9.160;2023-04-24T00:54:43;2.40;;;1.20;;
12770;SDS011;6449;47.666;9.160;2023-04-24T00:59:37;2.57;;;1.00;;
12770;SDS011;6449;47.666;9.160;2023-04-24T01:04:32;1.27;;;1.03;;
12770;SDS011;6449;47.666;9.160;2023-04-24T01:09:31;1.03;;;1.00;;
12770;SDS011;6449;47.666;9.160;2023-04-24T01:14:24;0.80;;;0.80;;
12770;SDS011;6449;47.666;9.160;2023-04-24T01:19:18;1.37;;;0.80;;
12770;SDS011;6449;47.666;9.160;2023-04-24T01:24:13;0.70;;;0.70;;
12770;SDS011;6449;47.666;9.160;2023-04-24T01:29:07;2.00;;;0.80;;
12770;SDS011;6449;47.666;9.160;2023-04-24T01:34:01;0.83;;;0.50;;
12770;SDS011;6449;47.666;9.160;2023-04-24T01:38:55;0.57;;;0.57;;
12770;SDS011;6449;47.666;9.160;2023-04-24T01:43:50;0.40;;;0.40;;
12770;SDS011;6449;47.666;9.160;2023-04-24T01:48:44;0.60;;;0.60;;
12770;SDS011;6449;47.666;9.160;2023-04-24T01:53:38;0.93;;;0.30;;
12770;SDS011;6449;47.666;9.160;2023-04-24T01:58:31;1.03;;;0.60;;
12770;SDS011;6449;47.666;9.160;2023-04-24T02:03:26;0.33;;;0.33;;
12770;SDS011;6449;47.666;9.160;2023-04-24T02:08:20;2.30;;;0.50;;
12770;SDS011;6449;47.666;9.160;2023-04-24T02:13:13;0.83;;;0.60;;
12770;SDS011;6449;47.666;9.160;2023-04-24T02:18:06;0.97;;;0.50;;
12770;SDS011;6449;47.666;9.160;2023-04-24T02:23:01;0.50;;;0.50;;
12770;SDS011;6449;47.666;9.160;2023-04-24T02:27:54;0.40;;;0.40;;
12770;SDS011;6449;47.666;9.160;2023-04-24T02:32:48;1.50;;;0.40;;
12770;SDS011;6449;47.666;9.160;2023-04-24T02:37:41;1.00;;;0.50;;
12770;SDS011;6449;47.666;9.160;2023-04-24T02:42:36;0.53;;;0.43;;
12770;SDS011;6449;47.666;9.160;2023-04-24T02:47:29;0.40;;;0.40;;
12770;SDS011;6449;47.666;9.160;2023-04-24T02:52:23;0.43;;;0.43;;
12770;SDS011;6449;47.666;9.160;2023-04-24T02:57:16;0.20;;;0.20;;
12770;SDS011;6449;47.666;9.160;2023-04-24T03:02:11;0.40;;;0.40;;
12770;SDS011;6449;47.666;9.160;2023-04-24T03:07:04;0.27;;;0.13;;
12770;SDS011;6449;47.666;9.160;2023-04-24T03:11:58;0.33;;;0.33;;
12770;SDS011;6449;47.666;9.160;2023-04-24T03:16:51;0.40;;;0.40;;
12770;SDS011;6449;47.666;9.160;2023-04-24T03:21:46;1.17;;;0.20;;
12770;SDS011;6449;47.666;9.160;2023-04-24T03:26:39;0.30;;;0.30;;
12770;SDS011;6449;47.666;9.160;2023-04-24T03:31:33;0.30;;;0.27;;
12770;SDS011;6449;47.666;9.160;2023-04-24T03:36:26;0.73;;;0.40;;
12770;SDS011;6449;47.666;9.160;2023-04-24T03:41:21;0.67;;;0.30;;
12770;SDS011;6449;47.666;9.160;2023-04-24T03:46:14;0.30;;;0.30;;
12770;SDS011;6449;47.666;9.160;2023-04-24T03:51:07;0.53;;;0.20;;
12770;SDS011;6449;47.666;9.160;2023-04-24T03:56:01;0.30;;;0.30;;
12770;SDS011;6449;47.666;9.160;2023-04-24T04:00:56;0.40;;;0.30;;
12770;SDS011;6449;47.666;9.160;2023-04-24T04:05:49;0.30;;;0.30;;
12770;SDS011;6449;47.666;9.160;2023-04-24T04:10:42;0.87;;;0.23;;
12770;SDS011;6449;47.666;9.160;2023-04-24T04:15:36;0.30;;;0.23;;
12770;SDS011;6449;47.666;9.160;2023-04-24T04:20:31;0.20;;;0.20;;
12770;SDS011;6449;47.666;9.160;2023-04-24T04:25:24;0.20;;;0.20;;
12770;SDS011;6449;47.666;9.160;2023-04-24T04:30:17;0.30;;;0.30;;
12770;SDS011;6449;47.666;9.160;2023-04-24T04:35:12;1.03;;;0.30;;
12770;SDS011;6449;47.666;9.160;2023-04-24T04:40:08;0.40;;;0.40;;
12770;SDS011;6449;47.666;9.160;2023-04-24T04:45:03;0.97;;;0.13;;
12770;SDS011;6449;47.666;9.160;2023-04-24T04:49:57;0.57;;;0.20;;
12770;SDS011;6449;47.666;9.160;2023-04-24T04:54:50;0.20;;;0.20;;
12770;SDS011;6449;47.666;9.160;2023-04-24T04:59:45;2.07;;;0.37;;
12770;SDS011;6449;47.666;9.160;2023-04-24T05:04:39;2.03;;;0.27;;
12770;SDS011;6449;47.666;9.160;2023-04-24T05:09:32;2.80;;;0.40;;
12770;SDS011;6449;47.666;9.160;2023-04-24T05:14:28;0.40;;;0.40;;
12770;SDS011;6449;47.666;9.160;2023-04-24T05:19:22;0.47;;;0.47;;
12770;SDS011;6449;47.666;9.160;2023-04-24T05:24:16;0.20;;;0.20;;
12770;SDS011;6449;47.666;9.160;2023-04-24T05:29:09;0.47;;;0.40;;
12770;SDS011;6449;47.666;9.160;2023-04-24T05:34:03;0.57;;;0.30;;
12770;SDS011;6449;47.666;9.160;2023-04-24T05:38:58;0.20;;;0.20;;
12770;SDS011;6449;47.666;9.160;2023-04-24T05:43:51;0.20;;;0.20;;
12770;SDS011;6449;47.666;9.160;2023-04-24T05:48:44;0.30;;;0.30;;
12770;SDS011;6449;47.666;9.160;2023-04-24T05:53:38;0.50;;;0.40;;
12770;SDS011;6449;47.666;9.160;2023-04-24T05:58:35;1.50;;;0.70;;
12770;SDS011;6449;47.666;9.160;2023-04-24T06:03:29;3.30;;;0.60;;
12770;SDS011;6449;47.666;9.160;2023-04-24T06:08:22;0.93;;;0.60;;
12770;SDS011;6449;47.666;9.160;2023-04-24T06:13:16;1.63;;;0.80;;
12770;SDS011;6449;47.666;9.160;2023-04-24T06:18:11;0.80;;;0.80;;
12770;SDS011;6449;47.666;9.160;2023-04-24T06:23:12;2.30;;;0.90;;
12770;SDS011;6449;47.666;9.160;2023-04-24T06:28:06;1.40;;;1.17;;
12770;SDS011;6449;47.666;9.160;2023-04-24T06:32:59;1.83;;;1.13;;
12770;SDS011;6449;47.666;9.160;2023-04-24T06:38:11;1.23;;;1.10;;
12770;SDS011;6449;47.666;9.160;2023-04-24T06:43:04;2.30;;;1.40;;
12770;SDS011;6449;47.666;9.160;2023-04-24T06:47:58;1.70;;;1.30;;
12770;SDS011;6449;47.666;9.160;2023-04-24T06:53:10;1.40;;;1.30;;
12770;SDS011;6449;47.666;9.160;2023-04-24T06:58:05;1.83;;;1.30;;
12770;SDS011;6449;47.666;9.160;2023-04-24T07:02:59;1.70;;;1.60;;
12770;SDS011;6449;47.666;9.160;2023-04-24T07:07:53;2.27;;;1.60;;
12770;SDS011;6449;47.666;9.160;2023-04-24T07:12:50;1.70;;;1.60;;
12770;SDS011;6449;47.666;9.160;2023-04-24T07:17:45;3.57;;;1.87;;
12770;SDS011;6449;47.666;9.160;2023-04-24T07:22:38;2.20;;;2.00;;
12770;SDS011;6449;47.666;9.160;2023-04-24T07:27:32;3.07;;;2.00;;
12770;SDS011;6449;47.666;9.160;2023-04-24T07:32:28;1.90;;;1.80;;
12770;SDS011;6449;47.666;9.160;2023-04-24T07:37:22;2.97;;;1.70;;
12770;SDS011;6449;47.666;9.160;2023-04-24T07:42:16;3.30;;;2.10;;
12770;SDS011;6449;47.666;9.160;2023-04-24T07:47:09;3.20;;;1.80;;
12770;SDS011;6449;47.666;9.160;2023-04-24T07:52:04;6.27;;;2.10;;
12770;SDS011;6449;47.666;9.160;2023-04-24T07:56:57;1.80;;;1.70;;
12770;SDS011;6449;47.666;9.160;2023-04-24T08:01:51;3.13;;;1.80;;
12770;SDS011;6449;47.666;9.160;2023-04-24T08:06:45;3.00;;;1.87;;
12770;SDS011;6449;47.666;9.160;2023-04-24T08:11:41;5.23;;;1.80;;
12770;SDS011;6449;47.666;9.160;2023-04-24T08:16:35;2.87;;;1.40;;
12770;SDS011;6449;47.666;9.160;2023-04-24T08:21:29;2.23;;;1.13;;
12770;SDS011;6449;47.666;9.160;2023-04-24T08:26:23;1.30;;;1.20;;
12770;SDS011;6449;47.666;9.160;2023-04-24T08:31:18;2.73;;;1.57;;
12770;SDS011;6449;47.666;9.160;2023-04-24T08:36:11;2.27;;;1.70;;
12770;SDS011;6449;47.666;9.160;2023-04-24T08:41:04;1.20;;;1.10;;
12770;SDS011;6449;47.666;9.160;2023-04-24T08:46:00;2.90;;;1.80;;
12770;SDS011;6449;47.666;9.160;2023-04-24T08:51:01;2.50;;;1.40;;
12770;SDS011;6449;47.666;9.160;2023-04-24T08:55:59;2.33;;;1.67;;
12770;SDS011;6449;47.666;9.160;2023-04-24T09:00:54;3.50;;;1.53;;
12770;SDS011;6449;47.666;9.160;2023-04-24T09:05:49;2.47;;;1.40;;
12770;SDS011;6449;47.666;9.160;2023-04-24T09:10:46;1.50;;;1.40;;
12770;SDS011;6449;47.666;9.160;2023-04-24T09:15:42;2.60;;;1.40;;
12770;SDS011;6449;47.666;9.160;2023-04-24T09:25:57;1.83;;;1.43;;
12770;SDS011;6449;47.666;9.160;2023-04-24T09:31:02;4.30;;;1.60;;
12770;SDS011;6449;47.666;9.160;2023-04-24T09:35:58;2.73;;;1.47;;
12770;SDS011;6449;47.666;9.160;2023-04-24T09:40:51;2.40;;;1.33;;
12770;SDS011;6449;47.666;9.160;2023-04-24T09:45:46;3.47;;;1.70;;
12770;SDS011;6449;47.666;9.160;2023-04-24T09:50:39;4.53;;;1.67;;
12770;SDS011;6449;47.666;9.160;2023-04-24T09:55:39;1.90;;;1.60;;
12770;SDS011;6449;47.666;9.160;2023-04-24T10:00:39;1.57;;;1.47;;
12770;SDS011;6449;47.666;9.160;2023-04-24T10:05:35;2.37;;;1.40;;
12770;SDS011;6449;47.666;9.160;2023-04-24T10:10:30;1.70;;;1.60;;
12770;SDS011;6449;47.666;9.160;2023-04-24T10:15:24;2.77;;;1.73;;
12770;SDS011;6449;47.666;9.160;2023-04-24T10:20:20;5.90;;;1.70;;
12770;SDS011;6449;47.666;9.160;2023-04-24T10:25:17;3.13;;;1.60;;
12770;SDS011;6449;47.666;9.160;2023-04-24T10:30:13;3.87;;;1.60;;
12770;SDS011;6449;47.666;9.160;2023-04-24T10:35:08;1.90;;;1.37;;
12770;SDS011;6449;47.666;9.160;2023-04-24T10:40:04;2.57;;;1.80;;
12770;SDS011;6449;47.666;9.160;2023-04-24T10:45:05;2.27;;;1.70;;
12770;SDS011;6449;47.666;9.160;2023-04-24T10:50:08;3.00;;;1.77;;
12770;SDS011;6449;47.666;9.160;2023-04-24T10:55:03;2.33;;;1.63;;
12770;SDS011;6449;47.666;9.160;2023-04-24T11:00:14;2.30;;;1.63;;
12770;SDS011;6449;47.666;9.160;2023-04-24T11:05:12;2.37;;;1.60;;
12770;SDS011;6449;47.666;9.160;2023-04-24T11:10:08;2.33;;;1.60;;
12770;SDS011;6449;47.666;9.160;2023-04-24T11:15:20;1.87;;;1.33;;
12770;SDS011;6449;47.666;9.160;2023-04-24T11:20:16;3.53;;;1.70;;
12770;SDS011;6449;47.666;9.160;2023-04-24T11:25:15;2.40;;;1.73;;
12770;SDS011;6449;47.666;9.160;2023-04-24T11:30:09;4.47;;;1.60;;
12770;SDS011;6449;47.666;9.160;2023-04-24T11:35:05;6.63;;;2.00;;
12770;SDS011;6449;47.666;9.160;2023-04-24T11:40:06;5.13;;;1.73;;
12770;SDS011;6449;47.666;9.160;2023-04-24T11:45:07;1.50;;;1.33;;
12770;SDS011;6449;47.666;9.160;2023-04-24T11:50:02;2.20;;;1.30;;
12770;SDS011;6449;47.666;9.160;2023-04-24T11:55:00;2.43;;;1.30;;
12770;SDS011;6449;47.666;9.160;2023-04-24T11:59:54;3.43;;;1.80;;
12770;SDS011;6449;47.666;9.160;2023-04-24T12:04:47;1.40;;;1.20;;
12770;SDS011;6449;47.666;9.160;2023-04-24T12:09:43;3.23;;;1.60;;
12770;SDS011;6449;47.666;9.160;2023-04-24T12:14:42;3.40;;;1.43;;
12770;SDS011;6449;47.666;9.160;2023-04-24T12:19:37;2.00;;;1.70;;
12770;SDS011;6449;47.666;9.160;2023-04-24T12:24:31;1.47;;;1.37;;
12770;SDS011;6449;47.666;9.160;2023-04-24T12:29:25;2.23;;;1.60;;
12770;SDS011;6449;47.666;9.160;2023-04-24T12:34:19;2.10;;;1.53;;
12770;SDS011;6449;47.666;9.160;2023-04-24T12:39:16;1.87;;;1.50;;
12770;SDS011;6449;47.666;9.160;2023-04-24T12:44:11;2.70;;;1.50;;
12770;SDS011;6449;47.666;9.160;2023-04-24T12:49:05;1.53;;;1.33;;
12770;SDS011;6449;47.666;9.160;2023-04-24T12:53:59;1.87;;;1.40;;
12770;SDS011;6449;47.666;9.160;2023-04-24T12:58:52;1.60;;;1.37;;
12770;SDS011;6449;47.666;9.160;2023-04-24T13:03:46;2.20;;;1.30;;
12770;SDS011;6449;47.666;9.160;2023-04-24T13:08:41;2.30;;;1.60;;
12770;SDS011;6449;47.666;9.160;2023-04-24T13:13:34;2.77;;;1.50;;
12770;SDS011;6449;47.666;9.160;2023-04-24T13:18:28;3.43;;;1.70;;
12770;SDS011;6449;47.666;9.160;2023-04-24T13:23:21;2.90;;;1.20;;
12770;SDS011;6449;47.666;9.160;2023-04-24T13:28:16;2.83;;;1.60;;
12770;SDS011;6449;47.666;9.160;2023-04-24T13:33:09;2.10;;;1.50;;
12770;SDS011;6449;47.666;9.160;2023-04-24T13:38:03;3.17;;;1.60;;
12770;SDS011;6449;47.666;9.160;2023-04-24T13:42:57;2.53;;;1.50;;
12770;SDS011;6449;47.666;9.160;2023-04-24T13:47:54;2.83;;;1.70;;
12770;SDS011;6449;47.666;9.160;2023-04-24T13:52:48;3.37;;;1.50;;
12770;SDS011;6449;47.666;9.160;2023-04-24T13:57:41;1.77;;;1.43;;
12770;SDS011;6449;47.666;9.160;2023-04-24T14:02:35;1.93;;;1.37;;
12770;SDS011;6449;47.666;9.160;2023-04-24T14:07:30;3.87;;;1.50;;
12770;SDS011;6449;47.666;9.160;2023-04-24T14:12:23;4.07;;;1.60;;
12770;SDS011;6449;47.666;9.160;2023-04-24T14:17:17;2.20;;;1.40;;
12770;SDS011;6449;47.666;9.160;2023-04-24T14:22:10;2.13;;;1.60;;
12770;SDS011;6449;47.666;9.160;2023-04-24T14:27:05;1.70;;;1.60;;
12770;SDS011;6449;47.666;9.160;2023-04-24T14:31:58;1.87;;;1.47;;
12770;SDS011;6449;47.666;9.160;2023-04-24T14:36:52;2.83;;;1.60;;
12770;SDS011;6449;47.666;9.160;2023-04-24T14:41:46;3.33;;;1.70;;
12770;SDS011;6449;47.666;9.160;2023-04-24T14:46:40;2.10;;;1.40;;
12770;SDS011;6449;47.666;9.160;2023-04-24T14:51:34;1.17;;;1.07;;
12770;SDS011;6449;47.666;9.160;2023-04-24T14:56:28;1.47;;;1.33;;
12770;SDS011;6449;47.666;9.160;2023-04-24T15:01:21;1.50;;;1.23;;
12770;SDS011;6449;47.666;9.160;2023-04-24T15:06:16;1.63;;;1.40;;
12770;SDS011;6449;47.666;9.160;2023-04-24T15:11:11;3.63;;;1.70;;
12770;SDS011;6449;47.666;9.160;2023-04-24T15:16:05;1.47;;;1.27;;
12770;SDS011;6449;47.666;9.160;2023-04-24T15:20:58;2.43;;;1.50;;
12770;SDS011;6449;47.666;9.160;2023-04-24T15:25:53;3.73;;;1.40;;
12770;SDS011;6449;47.666;9.160;2023-04-24T15:30:47;1.50;;;1.40;;
12770;SDS011;6449;47.666;9.160;2023-04-24T15:35:40;1.57;;;1.30;;
12770;SDS011;6449;47.666;9.160;2023-04-24T15:40:34;1.77;;;1.50;;
12770;SDS011;6449;47.666;9.160;2023-04-24T15:45:28;1.37;;;1.20;;
12770;SDS011;6449;47.666;9.160;2023-04-24T15:50:23;1.83;;;1.50;;
12770;SDS011;6449;47.666;9.160;2023-04-24T15:55:18;2.70;;;1.43;;
12770;SDS011;6449;47.666;9.160;2023-04-24T16:00:12;2.47;;;1.63;;
12770;SDS011;6449;47.666;9.160;2023-04-24T16:05:08;2.80;;;1.30;;
12770;SDS011;6449;47.666;9.160;2023-04-24T16:10:02;2.47;;;2.00;;
12770;SDS011;6449;47.666;9.160;2023-04-24T16:14:58;3.73;;;1.87;;
12770;SDS011;6449;47.666;9.160;2023-04-24T16:19:54;4.00;;;1.70;;
12770;SDS011;6449;47.666;9.160;2023-04-24T16:24:49;2.63;;;1.70;;
12770;SDS011;6449;47.666;9.160;2023-04-24T16:29:42;5.23;;;2.90;;
12770;SDS011;6449;47.666;9.160;2023-04-24T16:34:38;2.37;;;1.60;;
12770;SDS011;6449;47.666;9.160;2023-04-24T16:39:32;2.33;;;1.70;;
12770;SDS011;6449;47.666;9.160;2023-04-24T16:44:27;1.90;;;1.63;;
12770;SDS011;6449;47.666;9.160;2023-04-24T16:49:20;2.43;;;1.63;;
12770;SDS011;6449;47.666;9.160;2023-04-24T16:54:15;3.33;;;2.00;;
12770;SDS011;6449;47.666;9.160;2023-04-24T16:59:08;1.70;;;1.60;;
12770;SDS011;6449;47.666;9.160;2023-04-24T17:04:06;2.47;;;1.80;;
12770;SDS011;6449;47.666;9.160;2023-04-24T17:08:59;1.97;;;1.40;;
12770;SDS011;6449;47.666;9.160;2023-04-24T17:13:54;3.30;;;1.70;;
12770;SDS011;6449;47.666;9.160;2023-04-24T17:18:49;4.00;;;1.70;;
12770;SDS011;6449;47.666;9.160;2023-04-24T17:23:44;2.50;;;1.70;;
12770;SDS011;6449;47.666;9.160;2023-04-24T17:28:38;2.47;;;1.60;;
12770;SDS011;6449;47.666;9.160;2023-04-24T17:33:31;4.83;;;1.70;;
12770;SDS011;6449;47.666;9.160;2023-04-24T17:38:25;2.90;;;1.70;;
12770;SDS011;6449;47.666;9.160;2023-04-24T17:43:20;2.07;;;1.80;;
12770;SDS011;6449;47.666;9.160;2023-04-24T17:48:15;2.80;;;1.90;;
12770;SDS011;6449;47.666;9.160;2023-04-24T17:53:13;4.23;;;1.90;;
12770;SDS011;6449;47.666;9.160;2023-04-24T17:58:09;3.23;;;1.77;;
12770;SDS011;6449;47.666;9.160;2023-04-24T18:03:04;4.60;;;2.10;;
12770;SDS011;6449;47.666;9.160;2023-04-24T18:08:00;2.23;;;1.60;;
12770;SDS011;6449;47.666;9.160;2023-04-24T18:12:54;3.80;;;1.63;;
12770;SDS011;6449;47.666;9.160;2023-04-24T18:17:48;2.77;;;2.07;;
12770;SDS011;6449;47.666;9.160;2023-04-24T18:22:43;4.07;;;1.90;;
12770;SDS011;6449;47.666;9.160;2023-04-24T18:27:37;4.33;;;2.03;;
12770;SDS011;6449;47.666;9.160;2023-04-24T18:32:32;3.00;;;1.70;;
12770;SDS011;6449;47.666;9.160;2023-04-24T18:37:27;5.63;;;3.17;;
12770;SDS011;6449;47.666;9.160;2023-04-24T18:42:21;3.93;;;3.13;;
12770;SDS011;6449;47.666;9.160;2023-04-24T18:47:15;2.27;;;1.97;;
12770;SDS011;6449;47.666;9.160;2023-04-24T18:52:08;2.73;;;2.10;;
12770;SDS011;6449;47.666;9.160;2023-04-24T18:57:02;3.47;;;2.20;;
12770;SDS011;6449;47.666;9.160;2023-04-24T19:01:57;2.20;;;2.00;;
12770;SDS011;6449;47.666;9.160;2023-04-24T19:06:50;1.97;;;1.73;;
12770;SDS011;6449;47.666;9.160;2023-04-24T19:11:44;2.30;;;2.10;;
12770;SDS011;6449;47.666;9.160;2023-04-24T19:16:37;2.20;;;2.00;;
12770;SDS011;6449;47.666;9.160;2023-04-24T19:21:33;2.60;;;2.10;;
12770;SDS011;6449;47.666;9.160;2023-04-24T19:26:27;5.63;;;2.90;;
12770;SDS011;6449;47.666;9.160;2023-04-24T19:31:25;4.57;;;2.63;;
12770;SDS011;6449;47.666;9.160;2023-04-24T19:36:19;3.90;;;2.47;;
12770;SDS011;6449;47.666;9.160;2023-04-24T19:41:13;5.40;;;2.43;;
12770;SDS011;6449;47.666;9.160;2023-04-24T19:46:07;2.50;;;2.27;;
12770;SDS011;6449;47.666;9.160;2023-04-24T19:51:01;4.80;;;2.40;;
12770;SDS011;6449;47.666;9.160;2023-04-24T19:55:55;4.00;;;2.60;;
12770;SDS011;6449;47.666;9.160;2023-04-24T20:00:49;3.63;;;2.20;;
12770;SDS011;6449;47.666;9.160;2023-04-24T20:05:43;3.67;;;2.40;;
12770;SDS011;6449;47.666;9.160;2023-04-24T20:10:36;3.57;;;2.20;;
12770;SDS011;6449;47.666;9.160;2023-04-24T20:15:30;4.57;;;2.47;;
12770;SDS011;6449;47.666;9.160;2023-04-24T20:20:27;3.03;;;2.57;;
12770;SDS011;6449;47.666;9.160;2023-04-24T20:25:25;3.63;;;2.57;;
12770;SDS011;6449;47.666;9.160;2023-04-24T20:30:18;4.43;;;2.60;;
12770;SDS011;6449;47.666;9.160;2023-04-24T20:35:12;3.70;;;2.50;;
12770;SDS011;6449;47.666;9.160;2023-04-24T20:40:07;2.67;;;2.20;;
12770;SDS011;6449;47.666;9.160;2023-04-24T20:45:04;3.20;;;2.60;;
12770;SDS011;6449;47.666;9.160;2023-04-24T20:49:58;4.80;;;2.70;;
12770;SDS011;6449;47.666;9.160;2023-04-24T20:54:54;2.70;;;2.43;;
12770;SDS011;6449;47.666;9.160;2023-04-24T20:59:49;3.80;;;2.83;;
12770;SDS011;6449;47.666;9.160;2023-04-24T21:04:42;3.93;;;2.40;;
12770;SDS011;6449;47.666;9.160;2023-04-24T21:09:36;3.67;;;2.77;;
12770;SDS011;6449;47.666;9.160;2023-04-24T21:14:29;5.23;;;2.90;;
12770;SDS011;6449;47.666;9.160;2023-04-24T21:19:24;3.50;;;2.80;;
12770;SDS011;6449;47.666;9.160;2023-04-24T21:24:17;5.33;;;2.67;;
12770;SDS011;6449;47.666;9.160;2023-04-24T21:29:10;3.07;;;2.73;;
12770;SDS011;6449;47.666;9.160;2023-04-24T21:34:04;2.83;;;2.63;;
12770;SDS011;6449;47.666;9.160;2023-04-24T21:38:59;4.70;;;3.00;;
12770;SDS011;6449;47.666;9.160;2023-04-24T21:43:52;5.43;;;2.83;;
12770;SDS011;6449;47.666;9.160;2023-04-24T21:48:46;3.53;;;2.93;;
12770;SDS011;6449;47.666;9.160;2023-04-24T21:53:39;5.00;;;3.23;;
12770;SDS011;6449;47.666;9.160;2023-04-24T21:58:34;3.40;;;2.67;;
12770;SDS011;6449;47.666;9.160;2023-04-24T22:03:28;3.33;;;2.53;;
12770;SDS011;6449;47.666;9.160;2023-04-24T22:08:21;2.93;;;2.57;;
12770;SDS011;6449;47.666;9.160;2023-04-24T22:13:16;2.97;;;2.63;;
12770;SDS011;6449;47.666;9.160;2023-04-24T22:18:11;3.80;;;2.90;;
12770;SDS011;6449;47.666;9.160;2023-04-24T22:23:04;3.77;;;3.00;;
12770;SDS011;6449;47.666;9.160;2023-04-24T22:27:57;4.13;;;2.67;;
12770;SDS011;6449;47.666;9.160;2023-04-24T22:32:51;2.90;;;2.70;;
12770;SDS011;6449;47.666;9.160;2023-04-24T22:37:46;3.93;;;2.87;;
12770;SDS011;6449;47.666;9.160;2023-04-24T22:42:45;3.23;;;2.77;;
12770;SDS011;6449;47.666;9.160;2023-04-24T22:47:39;3.27;;;2.97;;
12770;SDS011;6449;47.666;9.160;2023-04-24T22:52:32;4.07;;;3.30;;
12770;SDS011;6449;47.666;9.160;2023-04-24T22:57:28;4.10;;;2.83;;
12770;SDS011;6449;47.666;9.160;2023-04-24T23:02:22;3.90;;;2.73;;
12770;SDS011;6449;47.666;9.160;2023-04-24T23:07:19;3.47;;;2.70;;
12770;SDS011;6449;47.666;9.160;2023-04-24T23:12:12;5.17;;;2.80;;
12770;SDS011;6449;47.666;9.160;2023-04-24T23:17:07;2.70;;;2.40;;
12770;SDS011;6449;47.666;9.160;2023-04-24T23:22:00;4.23;;;3.10;;
12770;SDS011;6449;47.666;9.160;2023-04-24T23:26:54;3.60;;;3.07;;
12770;SDS011;6449;47.666;9.160;2023-04-24T23:31:50;4.23;;;2.50;;
12770;SDS011;6449;47.666;9.160;2023-04-24T23:36:45;4.13;;;2.60;;
12770;SDS011;6449;47.666;9.160;2023-04-24T23:41:39;4.43;;;2.50;;
12770;SDS011;6449;47.666;9.160;2023-04-24T23:46:33;2.83;;;2.60;;
12770;SDS011;6449;47.666;9.160;2023-04-24T23:51:26;3.63;;;2.47;;
12770;SDS011;6449;47.666;9.160;2023-04-24T23:56:21;4.40;;;2.80;;
